createdAt,value
2019-05-09T00:02:27.858Z,2.20
2019-05-09T00:04:56.516Z,2.10
2019-05-09T00:07:25.175Z,1.83
2019-05-09T00:09:54.071Z,2.20
2019-05-09T00:12:23.372Z,2.07
2019-05-09T00:14:53.972Z,2.47
2019-05-09T00:17:23.315Z,2.07
2019-05-09T00:19:54.081Z,1.67
2019-05-09T00:22:24.035Z,1.80
2019-05-09T00:24:53.929Z,1.60
2019-05-09T00:27:23.194Z,1.90
2019-05-09T00:29:53.129Z,1.70
2019-05-09T00:32:29.971Z,1.67
2019-05-09T00:35:14.110Z,1.70
2019-05-09T00:37:53.762Z,1.73
2019-05-09T00:40:23.852Z,1.73
2019-05-09T00:42:53.397Z,1.60
2019-05-09T00:45:44.471Z,1.53
2019-05-09T00:48:15.283Z,1.60
2019-05-09T00:50:43.915Z,1.53
2019-05-09T00:53:13.784Z,1.30
2019-05-09T00:55:43.647Z,1.50
2019-05-09T00:58:13.566Z,1.70
2019-05-09T01:00:43.923Z,1.43
2019-05-09T01:03:14.177Z,1.70
2019-05-09T01:05:43.749Z,2.03
2019-05-09T01:08:13.757Z,1.97
2019-05-09T01:10:43.646Z,1.90
2019-05-09T01:13:14.240Z,1.73
2019-05-09T01:15:44.017Z,1.97
2019-05-09T01:18:13.346Z,1.87
2019-05-09T01:20:44.080Z,1.80
2019-05-09T01:23:14.248Z,1.60
2019-05-09T01:25:43.611Z,1.70
2019-05-09T01:28:13.990Z,1.83
2019-05-09T01:30:43.801Z,1.90
2019-05-09T01:33:25.532Z,1.90
2019-05-09T01:35:54.188Z,1.77
2019-05-09T01:38:23.305Z,1.73
2019-05-09T01:40:53.326Z,1.67
2019-05-09T01:43:24.229Z,1.90
2019-05-09T01:45:54.016Z,1.67
2019-05-09T01:48:23.480Z,1.70
2019-05-09T01:50:53.724Z,1.50
2019-05-09T01:53:27.614Z,1.97
2019-05-09T01:55:59.467Z,1.77
2019-05-09T01:58:30.571Z,1.90
2019-05-09T02:01:00.166Z,1.77
2019-05-09T02:03:28.899Z,1.60
2019-05-09T02:05:58.660Z,2.00
2019-05-09T02:08:34.765Z,1.70
2019-05-09T02:11:03.996Z,2.07
2019-05-09T02:13:33.843Z,2.00
2019-05-09T02:16:29.714Z,2.00
2019-05-09T02:19:14.758Z,1.80
2019-05-09T02:21:43.820Z,2.00
2019-05-09T02:24:14.053Z,2.10
2019-05-09T02:26:43.945Z,2.00
2019-05-09T02:29:13.867Z,1.80
2019-05-09T02:31:44.639Z,1.93
2019-05-09T02:34:15.236Z,1.93
2019-05-09T02:36:44.025Z,2.43
2019-05-09T02:39:12.713Z,1.53
2019-05-09T02:41:59.633Z,2.00
2019-05-09T02:44:11.961Z,1.80
2019-05-09T02:46:51.560Z,1.93
2019-05-09T02:49:20.312Z,1.57
2019-05-09T02:51:49.015Z,2.03
2019-05-09T02:54:19.061Z,1.93
2019-05-09T02:56:49.322Z,1.90
2019-05-09T02:59:49.263Z,2.07
2019-05-09T03:02:30.801Z,1.90
2019-05-09T03:04:59.457Z,2.00
2019-05-09T03:07:48.636Z,2.00
2019-05-09T03:10:19.226Z,2.07
2019-05-09T03:12:50.132Z,2.10
2019-05-09T03:15:18.899Z,1.60
2019-05-09T03:17:49.321Z,1.73
2019-05-09T03:20:31.243Z,2.07
2019-05-09T03:22:59.892Z,2.20
2019-05-09T03:25:29.104Z,1.90
2019-05-09T03:28:04.263Z,1.90
2019-05-09T03:30:39.392Z,2.00
2019-05-09T03:33:09.936Z,2.07
2019-05-09T03:35:37.886Z,1.97
2019-05-09T03:38:08.120Z,2.30
2019-05-09T03:40:37.886Z,2.20
2019-05-09T03:43:07.966Z,2.10
2019-05-09T03:45:44.626Z,2.33
2019-05-09T03:48:19.773Z,2.20
2019-05-09T03:50:48.989Z,2.10
2019-05-09T03:53:18.447Z,1.93
2019-05-09T03:55:48.160Z,1.90
2019-05-09T03:58:19.227Z,2.23
2019-05-09T04:00:48.207Z,2.20
2019-05-09T04:03:19.819Z,2.43
2019-05-09T04:05:56.529Z,1.97
2019-05-09T04:08:21.652Z,1.50
2019-05-09T04:10:52.544Z,2.10
2019-05-09T04:13:24.766Z,2.20
2019-05-09T04:15:53.419Z,1.80
2019-05-09T04:18:22.083Z,2.10
2019-05-09T04:20:50.735Z,2.60
2019-05-09T04:23:19.939Z,2.00
2019-05-09T04:25:58.370Z,2.10
2019-05-09T04:28:27.758Z,2.27
2019-05-09T04:30:58.117Z,2.00
2019-05-09T04:33:27.979Z,1.70
2019-05-09T04:35:57.900Z,1.83
2019-05-09T04:38:27.946Z,2.10
2019-05-09T04:40:58.385Z,1.70
2019-05-09T04:43:35.454Z,1.90
2019-05-09T04:45:59.817Z,2.00
2019-05-09T04:48:37.355Z,2.00
2019-05-09T04:51:07.839Z,1.70
2019-05-09T04:53:37.722Z,1.87
2019-05-09T04:56:17.393Z,2.00
2019-05-09T04:58:45.434Z,2.00
2019-05-09T05:01:32.316Z,1.90
2019-05-09T05:04:01.275Z,2.37
2019-05-09T05:06:30.251Z,2.40
2019-05-09T05:08:59.225Z,1.80
2019-05-09T05:11:28.053Z,2.03
2019-05-09T05:13:58.818Z,1.67
2019-05-09T05:16:30.364Z,2.20
2019-05-09T05:19:01.268Z,2.37
2019-05-09T05:21:30.268Z,2.40
2019-05-09T05:24:08.952Z,2.00
2019-05-09T05:26:38.177Z,2.00
2019-05-09T05:29:08.418Z,2.07
2019-05-09T05:31:38.835Z,1.70
2019-05-09T05:34:13.851Z,1.90
2019-05-09T05:36:42.755Z,1.97
2019-05-09T05:39:11.588Z,2.17
2019-05-09T05:41:40.244Z,2.47
2019-05-09T05:44:08.946Z,2.00
2019-05-09T05:47:01.985Z,2.20
2019-05-09T05:49:31.072Z,2.07
2019-05-09T05:52:00.141Z,2.17
2019-05-09T05:54:42.464Z,2.27
2019-05-09T05:57:11.372Z,2.40
2019-05-09T05:59:42.480Z,1.90
2019-05-09T06:02:12.006Z,1.90
2019-05-09T06:04:41.057Z,1.80
2019-05-09T06:07:10.018Z,2.57
2019-05-09T06:09:38.651Z,2.10
2019-05-09T06:12:08.243Z,2.57
2019-05-09T06:14:37.955Z,2.00
2019-05-09T06:17:07.999Z,2.10
2019-05-09T06:19:38.084Z,1.70
2019-05-09T06:22:08.237Z,2.00
2019-05-09T06:24:38.755Z,2.10
2019-05-09T06:27:10.180Z,1.73
2019-05-09T06:29:38.723Z,2.33
2019-05-09T06:32:08.139Z,1.90
2019-05-09T06:34:41.345Z,1.87
2019-05-09T06:37:08.856Z,2.00
2019-05-09T06:39:38.239Z,1.80
2019-05-09T06:42:08.995Z,1.90
2019-05-09T06:44:47.847Z,2.07
2019-05-09T06:47:23.976Z,1.83
2019-05-09T06:49:54.568Z,2.13
2019-05-09T06:52:23.801Z,2.10
2019-05-09T06:54:52.536Z,2.10
2019-05-09T06:57:21.217Z,1.70
2019-05-09T06:59:53.981Z,1.80
2019-05-09T07:02:28.521Z,1.53
2019-05-09T07:05:02.099Z,1.77
2019-05-09T07:07:37.429Z,1.47
2019-05-09T07:10:07.563Z,1.90
2019-05-09T07:12:37.949Z,2.10
2019-05-09T07:15:08.741Z,1.40
2019-05-09T07:17:38.766Z,1.43
2019-05-09T07:20:08.581Z,1.33
2019-05-09T07:22:41.671Z,1.60
2019-05-09T07:25:28.915Z,1.53
2019-05-09T07:27:58.638Z,1.40
2019-05-09T07:30:49.689Z,1.43
2019-05-09T07:33:27.892Z,0.90
2019-05-09T07:35:58.070Z,1.10
2019-05-09T07:38:30.798Z,1.40
2019-05-09T07:41:00.730Z,1.40
2019-05-09T07:43:29.787Z,1.30
2019-05-09T07:46:08.677Z,1.30
2019-05-09T07:48:38.120Z,1.00
2019-05-09T07:51:08.007Z,1.30
2019-05-09T07:53:38.044Z,0.97
2019-05-09T07:56:08.108Z,1.00
2019-05-09T07:58:37.691Z,1.03
2019-05-09T08:01:08.481Z,1.43
2019-05-09T08:03:38.520Z,1.20
2019-05-09T08:06:08.781Z,1.20
2019-05-09T08:08:38.463Z,1.13
2019-05-09T08:11:08.860Z,1.13
2019-05-09T08:13:39.218Z,0.93
2019-05-09T08:16:14.115Z,1.50
2019-05-09T08:18:38.822Z,1.40
2019-05-09T08:21:08.435Z,1.10
2019-05-09T08:23:38.005Z,1.10
2019-05-09T08:26:08.755Z,0.87
2019-05-09T08:28:38.905Z,1.30
2019-05-09T08:31:08.468Z,1.17
2019-05-09T08:33:38.263Z,1.40
2019-05-09T08:36:08.767Z,1.07
2019-05-09T08:38:39.015Z,1.33
2019-05-09T08:41:12.701Z,1.00
2019-05-09T08:43:42.003Z,1.20
2019-05-09T08:46:11.716Z,1.00
2019-05-09T08:48:40.410Z,1.10
2019-05-09T08:51:12.836Z,1.13
2019-05-09T08:53:41.830Z,0.77
2019-05-09T08:56:13.021Z,1.03
2019-05-09T08:58:41.011Z,1.00
2019-05-09T09:01:11.651Z,1.07
2019-05-09T09:03:40.130Z,1.17
2019-05-09T09:06:08.875Z,1.07
2019-05-09T09:08:38.064Z,1.00
2019-05-09T09:11:08.568Z,0.90
2019-05-09T09:13:38.035Z,1.00
2019-05-09T09:16:15.728Z,1.37
2019-05-09T09:18:38.754Z,0.93
2019-05-09T09:21:08.221Z,1.00
2019-05-09T09:23:44.117Z,1.07
2019-05-09T09:26:08.210Z,1.37
2019-05-09T09:28:37.949Z,1.00
2019-05-09T09:31:08.128Z,0.97
2019-05-09T09:33:37.776Z,1.57
2019-05-09T09:36:08.757Z,1.03
2019-05-09T09:38:37.647Z,1.00
2019-05-09T09:41:07.773Z,1.20
2019-05-09T09:43:38.401Z,1.10
2019-05-09T09:46:14.345Z,1.30
2019-05-09T09:48:38.851Z,1.13
2019-05-09T09:51:08.225Z,1.07
2019-05-09T09:53:38.485Z,0.73
2019-05-09T09:56:08.745Z,0.80
2019-05-09T09:58:38.029Z,1.22
2019-05-09T10:01:22.744Z,1.02
2019-05-09T10:04:14.523Z,1.10
2019-05-09T10:06:29.864Z,1.10
2019-05-09T10:08:58.505Z,1.02
2019-05-09T10:11:28.644Z,0.98
2019-05-09T10:13:58.449Z,0.80
2019-05-09T10:16:39.029Z,1.03
2019-05-09T10:19:12.258Z,1.07
2019-05-09T10:21:44.918Z,1.10
2019-05-09T10:24:13.607Z,0.80
2019-05-09T10:27:01.428Z,1.03
2019-05-09T10:29:30.436Z,1.27
2019-05-09T10:31:59.446Z,1.00
2019-05-09T10:34:28.824Z,1.03
2019-05-09T10:36:58.371Z,1.20
2019-05-09T10:39:27.710Z,1.13
2019-05-09T10:41:57.729Z,1.37
2019-05-09T10:44:30.960Z,1.40
2019-05-09T10:47:05.330Z,1.20
2019-05-09T10:49:34.574Z,1.47
2019-05-09T10:52:03.601Z,1.77
2019-05-09T10:54:32.316Z,1.20
2019-05-09T10:57:01.350Z,1.50
2019-05-09T10:59:30.231Z,1.40
2019-05-09T11:01:59.118Z,1.63
2019-05-09T11:04:28.783Z,1.80
2019-05-09T11:06:58.411Z,1.50
2019-05-09T11:09:29.148Z,1.90
2019-05-09T11:12:01.042Z,2.00
2019-05-09T11:14:36.534Z,1.57
2019-05-09T11:17:07.725Z,1.50
2019-05-09T11:19:29.800Z,1.40
2019-05-09T11:21:58.887Z,1.20
2019-05-09T11:24:41.429Z,1.17
2019-05-09T11:26:58.906Z,1.40
2019-05-09T11:29:28.298Z,1.27
2019-05-09T11:31:58.695Z,1.12
2019-05-09T11:34:27.938Z,1.17
2019-05-09T11:36:57.967Z,1.20
2019-05-09T11:39:38.669Z,1.37
2019-05-09T11:41:58.531Z,1.25
2019-05-09T11:44:28.027Z,1.40
2019-05-09T11:46:58.278Z,1.47
2019-05-09T11:49:29.569Z,1.20
2019-05-09T11:51:57.805Z,1.85
2019-05-09T11:54:27.948Z,1.75
2019-05-09T11:56:57.610Z,1.80
2019-05-09T11:59:28.018Z,1.60
2019-05-09T12:01:58.682Z,1.60
2019-05-09T12:04:28.224Z,1.47
2019-05-09T12:06:57.704Z,1.90
2019-05-09T12:09:28.914Z,1.83
2019-05-09T12:11:59.046Z,1.60
2019-05-09T12:14:27.772Z,1.67
2019-05-09T12:16:56.572Z,1.73
2019-05-09T12:19:25.486Z,2.00
2019-05-09T12:21:54.249Z,1.67
2019-05-09T12:24:23.278Z,1.97
2019-05-09T12:26:52.176Z,1.67
2019-05-09T12:29:20.832Z,1.77
2019-05-09T12:31:49.841Z,1.40
2019-05-09T12:34:19.382Z,1.50
2019-05-09T12:36:49.529Z,1.23
2019-05-09T12:39:19.159Z,1.20
2019-05-09T12:41:48.569Z,1.30
2019-05-09T12:44:18.435Z,0.90
2019-05-09T12:46:49.006Z,1.30
2019-05-09T12:49:19.009Z,1.30
2019-05-09T12:51:48.331Z,1.03
2019-05-09T12:54:19.061Z,1.00
2019-05-09T12:56:48.542Z,0.90
2019-05-09T12:59:18.681Z,0.95
2019-05-09T13:01:49.171Z,0.90
2019-05-09T13:04:18.237Z,1.02
2019-05-09T13:06:48.904Z,0.57
2019-05-09T13:09:17.914Z,1.00
2019-05-09T13:11:48.222Z,0.73
2019-05-09T13:14:19.433Z,0.90
2019-05-09T13:17:00.958Z,1.00
2019-05-09T13:19:34.885Z,0.70
2019-05-09T13:22:03.523Z,0.80
2019-05-09T13:24:32.792Z,0.83
2019-05-09T13:27:01.477Z,0.83
2019-05-09T13:29:30.197Z,0.82
2019-05-09T13:31:59.166Z,0.87
2019-05-09T13:34:28.343Z,0.90
2019-05-09T13:36:59.037Z,0.70
2019-05-09T13:39:28.205Z,0.80
2019-05-09T13:41:58.373Z,0.88
2019-05-09T13:44:27.854Z,1.00
2019-05-09T13:46:58.374Z,0.90
2019-05-09T13:49:28.578Z,0.90
2019-05-09T13:52:04.170Z,1.20
2019-05-09T13:54:28.657Z,1.20
2019-05-09T13:57:00.885Z,0.90
2019-05-09T13:59:30.052Z,1.17
2019-05-09T14:01:58.592Z,1.40
2019-05-09T14:04:28.654Z,1.30
2019-05-09T14:06:57.483Z,1.30
2019-05-09T14:09:29.149Z,1.35
2019-05-09T14:11:58.995Z,1.43
2019-05-09T14:14:28.199Z,1.37
2019-05-09T14:16:59.218Z,1.40
2019-05-09T14:19:39.998Z,1.37
2019-05-09T14:21:58.751Z,1.20
2019-05-09T14:24:28.317Z,1.30
2019-05-09T14:26:58.204Z,1.30
2019-05-09T14:29:31.477Z,1.40
2019-05-09T14:31:57.508Z,1.35
2019-05-09T14:34:26.192Z,1.50
2019-05-09T14:36:58.310Z,1.50
2019-05-09T14:39:27.670Z,1.55
2019-05-09T14:41:57.846Z,1.27
2019-05-09T14:44:27.741Z,1.45
2019-05-09T14:46:58.398Z,1.65
2019-05-09T14:49:39.835Z,1.40
2019-05-09T14:51:57.934Z,1.50
2019-05-09T14:54:28.822Z,1.57
2019-05-09T14:56:58.401Z,1.25
2019-05-09T14:59:28.620Z,1.77
2019-05-09T15:01:59.152Z,1.62
2019-05-09T15:04:27.996Z,1.50
2019-05-09T15:06:57.825Z,1.32
2019-05-09T15:09:28.378Z,1.50
2019-05-09T15:11:58.467Z,1.20
2019-05-09T15:14:28.957Z,1.57
2019-05-09T15:16:57.974Z,1.37
2019-05-09T15:19:28.746Z,1.13
2019-05-09T15:22:00.394Z,1.25
2019-05-09T15:24:29.108Z,1.27
2019-05-09T15:26:58.233Z,1.32
2019-05-09T15:29:29.040Z,1.20
2019-05-09T15:32:04.478Z,1.22
2019-05-09T15:34:28.579Z,1.42
2019-05-09T15:36:58.306Z,1.15
2019-05-09T15:39:27.712Z,1.10
2019-05-09T15:41:57.952Z,1.40
2019-05-09T15:44:26.925Z,0.88
2019-05-09T15:47:01.353Z,1.07
2019-05-09T15:49:30.074Z,0.90
2019-05-09T15:51:58.997Z,1.20
2019-05-09T15:54:29.380Z,1.63
2019-05-09T15:56:58.184Z,1.20
2019-05-09T15:59:28.048Z,0.93
2019-05-09T16:01:58.353Z,1.00
2019-05-09T16:04:28.023Z,0.93
2019-05-09T16:06:56.982Z,1.00
2019-05-09T16:09:25.657Z,1.20
2019-05-09T16:11:54.331Z,1.20
2019-05-09T16:14:23.265Z,0.80
2019-05-09T16:16:52.171Z,0.80
2019-05-09T16:19:20.831Z,1.10
2019-05-09T16:21:49.574Z,1.00
2019-05-09T16:24:18.952Z,1.20
2019-05-09T16:26:48.779Z,1.45
2019-05-09T16:29:18.246Z,1.30
2019-05-09T16:31:48.132Z,1.00
2019-05-09T16:34:17.894Z,1.70
2019-05-09T16:36:47.978Z,1.30
2019-05-09T16:39:17.957Z,1.30
2019-05-09T16:41:48.490Z,1.90
2019-05-09T16:44:18.318Z,2.70
2019-05-09T16:46:48.614Z,1.37
2019-05-09T16:49:19.753Z,1.43
2019-05-09T16:51:48.608Z,1.60
2019-05-09T16:54:18.185Z,1.30
2019-05-09T16:56:47.095Z,1.50
2019-05-09T16:59:17.859Z,1.60
2019-05-09T17:01:49.881Z,1.40
2019-05-09T17:04:19.125Z,1.60
2019-05-09T17:06:49.470Z,1.40
2019-05-09T17:09:18.186Z,1.73
2019-05-09T17:11:48.031Z,1.70
2019-05-09T17:14:19.312Z,1.70
2019-05-09T17:16:48.268Z,1.70
2019-05-09T17:19:19.514Z,1.80
2019-05-09T17:21:53.948Z,1.60
2019-05-09T17:24:23.250Z,1.53
2019-05-09T17:26:51.970Z,1.70
2019-05-09T17:29:20.621Z,1.60
2019-05-09T17:31:49.297Z,1.80
2019-05-09T17:34:18.173Z,1.50
2019-05-09T17:36:47.068Z,1.67
2019-05-09T17:39:18.426Z,1.50
2019-05-09T17:41:46.609Z,1.70
2019-05-09T17:44:15.239Z,1.80
2019-05-09T17:46:43.982Z,1.67
2019-05-09T17:49:12.628Z,2.10
2019-05-09T17:51:41.575Z,1.57
2019-05-09T17:54:10.322Z,1.50
2019-05-09T17:56:39.059Z,1.73
2019-05-09T17:59:08.558Z,1.73
2019-05-09T18:01:37.657Z,1.80
2019-05-09T18:04:08.894Z,1.60
2019-05-09T18:06:37.931Z,2.10
2019-05-09T18:09:08.430Z,1.90
2019-05-09T18:11:37.838Z,1.53
2019-05-09T18:14:08.110Z,1.77
2019-05-09T18:16:38.956Z,1.70
2019-05-09T18:19:09.407Z,1.40
2019-05-09T18:21:50.415Z,1.50
2019-05-09T18:24:09.306Z,1.77
2019-05-09T18:26:38.342Z,1.73
2019-05-09T18:29:07.274Z,1.40
2019-05-09T18:31:48.385Z,1.60
2019-05-09T18:34:18.526Z,1.67
2019-05-09T18:36:48.419Z,1.20
2019-05-09T18:39:18.618Z,1.30
2019-05-09T18:41:48.398Z,1.40
2019-05-09T18:44:18.271Z,1.47
2019-05-09T18:46:48.125Z,1.60
2019-05-09T18:49:17.021Z,1.43
2019-05-09T18:51:45.684Z,1.47
2019-05-09T18:54:14.812Z,1.50
2019-05-09T18:56:43.438Z,1.40
2019-05-09T18:59:12.099Z,1.57
2019-05-09T19:01:42.089Z,1.30
2019-05-09T19:04:10.746Z,1.47
2019-05-09T19:06:40.007Z,1.57
2019-05-09T19:09:08.815Z,1.53
2019-05-09T19:11:37.787Z,1.60
2019-05-09T19:14:07.674Z,1.80
2019-05-09T19:16:42.275Z,1.90
2019-05-09T19:19:17.133Z,1.70
2019-05-09T19:21:49.405Z,1.43
2019-05-09T19:24:18.702Z,1.70
2019-05-09T19:26:47.407Z,1.70
2019-05-09T19:29:16.107Z,1.40
2019-05-09T19:31:44.969Z,1.67
2019-05-09T19:34:13.616Z,1.50
2019-05-09T19:36:42.363Z,1.80
2019-05-09T19:39:12.033Z,1.80
2019-05-09T19:41:40.672Z,2.03
2019-05-09T19:44:11.425Z,1.90
2019-05-09T19:46:40.169Z,1.87
2019-05-09T19:49:09.096Z,1.87
2019-05-09T19:51:37.772Z,2.20
2019-05-09T19:54:06.475Z,2.10
2019-05-09T19:56:35.143Z,1.90
2019-05-09T19:59:07.181Z,2.07
2019-05-09T20:01:34.278Z,2.10
2019-05-09T20:04:02.952Z,1.97
2019-05-09T20:06:32.092Z,1.80
2019-05-09T20:09:00.898Z,2.03
2019-05-09T20:11:46.860Z,2.03
2019-05-09T20:14:25.611Z,1.93
2019-05-09T20:16:55.864Z,1.93
2019-05-09T20:19:24.919Z,2.10
2019-05-09T20:21:54.671Z,2.00
2019-05-09T20:24:23.340Z,1.87
2019-05-09T20:26:52.018Z,2.30
2019-05-09T20:29:20.667Z,2.00
2019-05-09T20:31:49.370Z,1.83
2019-05-09T20:34:18.054Z,2.10
2019-05-09T20:36:46.703Z,2.00
2019-05-09T20:39:15.539Z,2.30
2019-05-09T20:41:44.533Z,2.00
2019-05-09T20:44:13.426Z,2.30
2019-05-09T20:46:42.356Z,1.63
2019-05-09T20:49:11.199Z,2.10
2019-05-09T20:51:40.082Z,2.10
2019-05-09T20:54:20.667Z,2.30
2019-05-09T20:56:39.849Z,2.00
2019-05-09T20:59:09.026Z,1.80
2019-05-09T21:01:37.873Z,1.90
2019-05-09T21:04:06.900Z,2.00
2019-05-09T21:06:36.241Z,2.00
2019-05-09T21:09:06.844Z,1.97
2019-05-09T21:11:36.239Z,1.90
2019-05-09T21:14:05.223Z,1.60
2019-05-09T21:16:34.370Z,1.53
2019-05-09T21:19:03.632Z,2.00
2019-05-09T21:21:32.762Z,1.73
2019-05-09T21:24:03.245Z,1.80
2019-05-09T21:26:32.197Z,1.57
2019-05-09T21:29:02.110Z,2.40
2019-05-09T21:31:31.062Z,1.90
2019-05-09T21:34:02.759Z,1.93
2019-05-09T21:36:31.414Z,2.10
2019-05-09T21:39:00.354Z,1.80
2019-05-09T21:41:29.014Z,1.70
2019-05-09T21:43:57.652Z,1.90
2019-05-09T21:46:26.671Z,1.80
2019-05-09T21:48:55.655Z,2.00
2019-05-09T21:51:24.754Z,1.87
2019-05-09T21:55:53.446Z,1.63
2019-05-09T21:58:22.079Z,2.07
2019-05-09T22:00:54.008Z,2.10
2019-05-09T22:03:22.813Z,1.90
2019-05-09T22:05:51.895Z,1.90
2019-05-09T22:08:21.288Z,1.80
2019-05-09T22:10:50.139Z,2.07
2019-05-09T22:13:18.803Z,1.90
2019-05-09T22:15:47.457Z,2.17
2019-05-09T22:18:16.114Z,2.20
2019-05-09T22:20:45.125Z,2.10
2019-05-09T22:23:14.048Z,2.10
2019-05-09T22:25:43.053Z,2.30
2019-05-09T22:28:13.999Z,2.27
2019-05-09T22:30:43.513Z,2.27
2019-05-09T22:33:12.197Z,2.50
2019-05-09T22:35:40.942Z,2.20
2019-05-09T22:38:09.640Z,2.57
2019-05-09T22:40:38.316Z,2.03
2019-05-09T22:43:07.297Z,2.10
2019-05-09T22:45:36.299Z,2.23
2019-05-09T22:48:05.080Z,2.47
2019-05-09T22:50:34.080Z,2.63
2019-05-09T22:53:03.287Z,2.37
2019-05-09T22:55:31.995Z,2.13
2019-05-09T22:58:00.655Z,2.40
2019-05-09T23:00:29.493Z,2.80
2019-05-09T23:03:01.717Z,2.93
2019-05-09T23:05:30.355Z,2.50
2019-05-09T23:07:59.318Z,2.50
2019-05-09T23:10:28.004Z,2.87
2019-05-09T23:12:56.672Z,2.70
2019-05-09T23:15:25.374Z,2.60
2019-05-09T23:17:54.048Z,3.10
2019-05-09T23:20:40.703Z,2.90
2019-05-09T23:23:26.151Z,2.67
2019-05-09T23:25:54.848Z,2.67
2019-05-09T23:28:24.327Z,2.97
2019-05-09T23:30:55.410Z,3.10
2019-05-09T23:33:25.517Z,3.27
2019-05-09T23:35:54.193Z,2.93
2019-05-09T23:38:22.830Z,2.70
2019-05-09T23:40:51.475Z,3.30
2019-05-09T23:43:20.241Z,3.37
2019-05-09T23:45:48.957Z,2.90
2019-05-09T23:48:17.932Z,3.37
2019-05-09T23:50:46.904Z,3.17
2019-05-09T23:53:20.788Z,3.27
2019-05-09T23:56:07.692Z,3.27
